หน้าหลัก
METAR-TAF:

METAR-TAF

ท่าอากาศยาน :

Nogales, แอริโซนา, สหรัฐอเมริกา

ละติจูด: 31-25-15N, ลองจิจูด: 110-50-45W, ความสูง: 1198 ม.

การสังเกตสภาพอากาศปัจจุบัน

รายงานได้ทำขึ้นเมื่อ 32 นาทีที่แล้ว ณ เวลา 13:54 UTC
ลมสงบ
อุณหภูมิ 22°C
ความชื้น 21%
ความกดอากาศ 1011 hPa
ทัศนวิสัย: 16.1 กม.
ท้องฟ้าแจ่มใส

METAR: KOLS 181354Z AUTO 00000KT 10SM CLR 22/M01 A2985 RMK AO2 SLP033 T02221006

เวลา: 07:26 (14:26 UTC)

การพยากรณ์

รายงานได้ทำขึ้นเมื่อ 3 ชั่วโมงและ 6 นาทีที่แล้ว ณ เวลา 11:20 UTC
การพยากรณ์มีผลตั้งแต่วันที่ 18 ณ เวลา 12 UTC จนถึงวันที่ 19 ณ เวลา 12 UTC
ลม 9 นอตจากใต้
ทัศนวิสัย: 10 กม.
ท้องฟ้าแจ่มใส
จาก 18 ณ เวลา 1700 UTC
ลม 14 นอตจากใต้/ตะวันตกเฉียงใต้โดยมีลมกระโชกได้ถึง23 นอต
ทัศนวิสัย: 10 กม.
ท้องฟ้าแจ่มใส
จาก 19 ณ เวลา 0300 UTC
ลม 7 นอตจากใต้/ตะวันตกเฉียงใต้
ทัศนวิสัย: 10 กม.
ท้องฟ้าแจ่มใส
จาก 19 ณ เวลา 0600 UTC
ลม 3 นอตจากทิศทางซึ่งแปรผันได้
ทัศนวิสัย: 10 กม.
ท้องฟ้าแจ่มใส

TAF: KOLS 181120Z 1812/1912 17009KT P6SM SKC FM181700 21014G23KT P6SM SKC FM190300 21007KT P6SM SKC FM190600 VRB03KT P6SM SKC

สังเกตการณ์สภาพอากาศและพยากรณ์อากาศของสนามบินมากกว่า 4000 แห่ง (รายงาน METAR และ TAF).

สถานีที่ดูได้จะแสดงไว้ด้วยจุดสีเหลืองและสีแดงบนแผนที่.

เลื่อนเมาส์ไปเหนือจุดเพื่อดูชื่อสถานี.

แล้วคลิกเพื่อดูสังเกตการณ์และการพยากรณ์สภาพอากาศ.

ในการเปลี่ยนแผนที่: คลิกที่ปุ่มสีเขียวที่มีกากบาทสีดำเพื่อซูมเข้า; ที่ปุ่มสีเขียวที่มีขีดเพื่อซูมออก; หรือที่ลูกศรสีเขียวเพื่อไปยังแผนที่ที่อยู่ติดกัน.


METAR-TAF: